CheckWX is a tool to help pilots better visualize weather data.  It is not intended as a substitute for an official pre-flight weather briefing.

14:54:29 UTC

KCID TAF
The Eastern Iowa Airport
Cedar Rapids, Iowa, USA
KCID 211120Z 2112/2212 20008KT P6SM SKC FM211600 21014G21KT P6SM SKC FM220000 21010KT P6SM SCT250

Feb-21@
12:00 UTC

Feb-21 @ 12:00 UTC

Feb-21@
16:00 UTC

Feb-21 @ 16:00 UTC

KCID 211120Z 2112/2212 20008KT P6SM SKC
Wind
  • 200° at 8 KTS
Cloud Levels
  • Clear skies

Feb-21@
16:00 UTC

Feb-21 @ 16:00 UTC

Feb-22@
00:00 UTC

Feb-22 @ 00:00 UTC

FM211600 21014G21KT P6SM SKC

From

From Standard forecast or significant change

Wind
  • 210° at 14 KTS
  • {Gusting to 21 KTS
Cloud Levels
  • Clear skies

Feb-22@
00:00 UTC

Feb-22 @ 00:00 UTC

Feb-22@
12:00 UTC

Feb-22 @ 12:00 UTC

FM220000 21010KT P6SM SCT250

From

From Standard forecast or significant change

Wind
  • 210° at 10 KTS
Cloud Levels
  • Scattered at 25,000' AGL